createdAt,value
2023-05-06T00:02:08.283Z,5.18
2023-05-06T00:04:35.150Z,5.68
2023-05-06T00:07:02.283Z,3.83
2023-05-06T00:09:29.015Z,3.85
2023-05-06T00:11:56.025Z,3.85
2023-05-06T00:14:22.868Z,5.10
2023-05-06T00:16:50.930Z,5.75
2023-05-06T00:19:17.761Z,4.88
2023-05-06T00:21:44.436Z,6.50
2023-05-06T00:24:11.409Z,4.47
2023-05-06T00:26:38.156Z,8.23
2023-05-06T00:29:04.914Z,6.18
2023-05-06T00:31:31.583Z,6.20
2023-05-06T00:33:58.291Z,5.93
2023-05-06T00:36:25.080Z,6.03
2023-05-06T00:38:51.756Z,6.15
2023-05-06T00:41:18.637Z,7.23
2023-05-06T00:43:45.604Z,6.60
2023-05-06T00:46:16.270Z,6.57
2023-05-06T00:48:44.502Z,6.95
2023-05-06T00:51:12.622Z,6.18
2023-05-06T00:53:40.113Z,7.93
2023-05-06T00:56:07.465Z,6.80
2023-05-06T00:58:34.996Z,6.95
2023-05-06T01:01:02.215Z,7.25
2023-05-06T01:03:29.290Z,7.00
2023-05-06T01:06:18.191Z,8.68
2023-05-06T01:08:57.505Z,7.72
2023-05-06T01:11:47.115Z,7.97
2023-05-06T01:14:26.336Z,8.95
2023-05-06T01:16:58.132Z,7.57
2023-05-06T01:19:37.147Z,7.35
2023-05-06T01:22:06.160Z,8.10
2023-05-06T01:24:37.743Z,7.38
2023-05-06T01:27:04.510Z,7.80
2023-05-06T01:29:31.944Z,8.63
2023-05-06T01:32:15.136Z,8.43
2023-05-06T01:34:52.869Z,7.97
2023-05-06T01:37:32.314Z,6.93
2023-05-06T01:40:00.667Z,6.95
2023-05-06T01:42:28.890Z,8.18
2023-05-06T01:44:57.538Z,8.00
2023-05-06T01:47:25.238Z,7.55
2023-05-06T01:49:52.433Z,8.53
2023-05-06T01:52:21.368Z,8.18
2023-05-06T01:54:48.058Z,8.02
2023-05-06T01:57:14.740Z,9.05
2023-05-06T01:59:41.413Z,7.70
2023-05-06T02:02:08.203Z,9.13
2023-05-06T02:04:34.946Z,9.60
2023-05-06T02:07:01.763Z,10.13
2023-05-06T02:09:28.422Z,9.27
2023-05-06T02:11:55.075Z,9.30
2023-05-06T02:14:21.815Z,10.23
2023-05-06T02:16:48.512Z,8.48
2023-05-06T02:19:18.002Z,8.77
2023-05-06T02:21:44.882Z,8.33
2023-05-06T02:24:11.493Z,8.75
2023-05-06T02:26:38.235Z,8.93
2023-05-06T02:29:04.916Z,8.73
2023-05-06T02:31:33.132Z,8.80
2023-05-06T02:33:59.799Z,8.43
2023-05-06T02:36:27.514Z,9.90
2023-05-06T02:38:54.278Z,10.05
2023-05-06T02:41:21.305Z,10.07
2023-05-06T02:43:48.039Z,9.37
2023-05-06T02:46:14.764Z,9.35
2023-05-06T02:48:41.998Z,10.93
2023-05-06T02:51:08.728Z,8.98
2023-05-06T02:53:35.358Z,13.18
2023-05-06T02:56:02.005Z,9.60
2023-05-06T02:58:29.175Z,8.90
2023-05-06T03:00:55.961Z,9.85
2023-05-06T03:03:22.924Z,9.40
2023-05-06T03:05:49.589Z,12.27
2023-05-06T03:08:16.741Z,9.38
2023-05-06T03:10:43.389Z,9.32
2023-05-06T03:13:10.119Z,9.45
2023-05-06T03:15:39.816Z,10.17
2023-05-06T03:18:06.481Z,9.10
2023-05-06T03:20:34.024Z,10.43
2023-05-06T03:23:00.877Z,10.70
2023-05-06T03:25:27.600Z,9.40
2023-05-06T03:27:54.235Z,9.75
2023-05-06T03:30:21.033Z,9.52
2023-05-06T03:32:48.759Z,10.00
2023-05-06T03:35:16.622Z,10.63
2023-05-06T03:37:43.300Z,9.17
2023-05-06T03:40:10.146Z,10.10
2023-05-06T03:42:36.862Z,9.68
2023-05-06T03:45:04.934Z,8.38
2023-05-06T03:47:31.798Z,11.43
2023-05-06T03:49:59.324Z,10.43
2023-05-06T03:52:26.299Z,8.32
2023-05-06T03:54:53.031Z,8.73
2023-05-06T03:57:19.700Z,11.07
2023-05-06T03:59:46.360Z,11.45
2023-05-06T04:02:13.173Z,10.87
2023-05-06T04:04:39.880Z,9.65
2023-05-06T04:07:06.734Z,10.98
2023-05-06T04:09:33.427Z,11.40
2023-05-06T04:12:00.158Z,10.02
2023-05-06T04:14:26.908Z,9.83
2023-05-06T04:16:53.893Z,11.57
2023-05-06T04:19:21.533Z,10.67
2023-05-06T04:21:48.278Z,10.63
2023-05-06T04:24:16.292Z,10.45
2023-05-06T04:26:43.056Z,11.48
2023-05-06T04:29:09.990Z,11.07
2023-05-06T04:31:36.933Z,10.70
2023-05-06T04:34:04.313Z,10.07
2023-05-06T04:36:31.012Z,11.20
2023-05-06T04:38:58.244Z,10.48
2023-05-06T04:41:25.947Z,11.13
2023-05-06T04:43:52.638Z,10.68
2023-05-06T04:46:19.506Z,9.85
2023-05-06T04:48:46.339Z,13.90
2023-05-06T04:51:13.151Z,12.38
2023-05-06T04:53:40.722Z,11.60
2023-05-06T04:56:07.954Z,12.00
2023-05-06T04:58:34.602Z,10.82
2023-05-06T05:01:04.693Z,11.63
2023-05-06T05:03:31.771Z,12.80
2023-05-06T05:05:58.569Z,11.05
2023-05-06T05:08:25.234Z,11.30
2023-05-06T05:10:51.880Z,10.32
2023-05-06T05:13:19.303Z,10.35
2023-05-06T05:15:48.834Z,11.00
2023-05-06T05:18:15.581Z,10.45
2023-05-06T05:20:42.250Z,10.98
2023-05-06T05:23:08.900Z,11.13
2023-05-06T05:25:35.629Z,11.13
2023-05-06T05:28:02.350Z,12.10
2023-05-06T05:30:29.010Z,11.93
2023-05-06T05:32:56.091Z,13.40
2023-05-06T05:35:22.833Z,14.50
2023-05-06T05:37:49.505Z,10.77
2023-05-06T05:40:16.359Z,11.18
2023-05-06T05:42:43.067Z,11.82
2023-05-06T05:45:10.382Z,11.48
2023-05-06T05:47:37.282Z,13.15
2023-05-06T05:50:04.392Z,13.18
2023-05-06T05:52:31.451Z,10.88
2023-05-06T05:54:58.080Z,11.52
2023-05-06T05:57:24.729Z,11.32
2023-05-06T05:59:51.347Z,11.32
2023-05-06T06:02:18.079Z,10.82
2023-05-06T06:04:44.772Z,11.52
2023-05-06T06:07:11.540Z,8.68
2023-05-06T06:09:38.247Z,9.80
2023-05-06T06:12:05.164Z,10.00
2023-05-06T06:14:31.782Z,8.70
2023-05-06T06:16:58.508Z,9.80
2023-05-06T06:19:25.213Z,8.57
2023-05-06T06:21:52.115Z,6.25
2023-05-06T06:24:18.754Z,6.78
2023-05-06T06:26:45.536Z,7.57
2023-05-06T06:29:12.760Z,6.05
2023-05-06T06:31:40.646Z,5.27
2023-05-06T06:34:09.005Z,5.45
2023-05-06T06:36:35.754Z,5.20
2023-05-06T06:39:02.415Z,4.22
2023-05-06T06:41:29.118Z,5.22
2023-05-06T06:43:55.854Z,8.68
2023-05-06T06:46:22.635Z,5.60
2023-05-06T06:48:49.353Z,5.47
2023-05-06T06:51:16.087Z,6.43
2023-05-06T06:53:42.571Z,9.07
2023-05-06T06:56:12.224Z,6.88
2023-05-06T06:58:39.038Z,5.05
2023-05-06T07:01:06.004Z,5.97
2023-05-06T07:03:32.793Z,5.78
2023-05-06T07:05:59.498Z,4.85
2023-05-06T07:08:26.198Z,6.05
2023-05-06T07:10:53.004Z,7.93
2023-05-06T07:13:22.935Z,6.97
2023-05-06T07:15:50.068Z,6.33
2023-05-06T07:18:16.805Z,5.68
2023-05-06T07:20:43.573Z,6.38
2023-05-06T07:23:10.251Z,6.90
2023-05-06T07:25:37.047Z,6.05
2023-05-06T07:28:03.820Z,8.00
2023-05-06T07:30:30.472Z,6.72
2023-05-06T07:32:57.218Z,7.60
2023-05-06T07:35:23.969Z,7.57
2023-05-06T07:37:50.712Z,7.55
2023-05-06T07:40:17.410Z,8.23
2023-05-06T07:42:44.207Z,6.60
2023-05-06T07:45:11.314Z,7.78
2023-05-06T07:47:38.364Z,7.07
2023-05-06T07:50:06.769Z,8.00
2023-05-06T07:52:34.109Z,8.15
2023-05-06T07:55:00.895Z,6.78
2023-05-06T07:57:27.811Z,7.15
2023-05-06T07:59:54.533Z,6.82
2023-05-06T08:02:21.312Z,5.85
2023-05-06T08:04:48.991Z,6.70
2023-05-06T08:07:17.782Z,6.10
2023-05-06T08:09:44.572Z,6.73
2023-05-06T08:12:11.302Z,6.30
2023-05-06T08:14:38.119Z,5.97
2023-05-06T08:17:04.837Z,6.03
2023-05-06T08:19:31.558Z,5.40
2023-05-06T08:21:58.207Z,5.45
2023-05-06T08:24:24.875Z,6.07
2023-05-06T08:26:51.691Z,5.65
2023-05-06T08:29:19.323Z,4.95
2023-05-06T08:31:46.833Z,4.50
2023-05-06T08:34:13.587Z,4.90
2023-05-06T08:36:40.286Z,3.72
2023-05-06T08:39:06.988Z,5.53
2023-05-06T08:41:38.174Z,4.13
2023-05-06T08:44:05.580Z,4.00
2023-05-06T08:46:32.479Z,4.07
2023-05-06T08:49:00.292Z,4.07
2023-05-06T08:51:31.740Z,3.45
2023-05-06T08:54:01.711Z,5.10
2023-05-06T08:56:32.725Z,3.55
2023-05-06T08:59:01.181Z,3.50
2023-05-06T09:01:28.755Z,2.95
2023-05-06T09:03:56.821Z,2.50
2023-05-06T09:06:24.181Z,2.63
2023-05-06T09:08:51.174Z,2.40
2023-05-06T09:11:24.668Z,2.90
2023-05-06T09:14:06.788Z,2.90
2023-05-06T09:16:33.540Z,2.90
2023-05-06T09:19:00.266Z,2.30
2023-05-06T09:21:34.268Z,3.42
2023-05-06T09:24:01.833Z,2.10
2023-05-06T09:26:32.782Z,2.13
2023-05-06T09:29:00.449Z,2.13
2023-05-06T09:31:28.391Z,2.17
2023-05-06T09:33:57.112Z,2.13
2023-05-06T09:36:30.813Z,1.90
2023-05-06T09:38:57.731Z,3.03
2023-05-06T09:41:25.634Z,3.30
2023-05-06T09:43:54.064Z,1.90
2023-05-06T09:46:22.995Z,1.70
2023-05-06T09:48:51.577Z,1.67
2023-05-06T09:51:19.136Z,1.50
2023-05-06T09:53:46.549Z,2.88
2023-05-06T09:56:14.819Z,2.63
2023-05-06T09:58:42.011Z,1.73
2023-05-06T10:01:09.265Z,1.55
2023-05-06T10:03:36.502Z,3.40
2023-05-06T10:06:05.936Z,1.67
2023-05-06T10:08:35.077Z,5.95
2023-05-06T10:11:02.116Z,1.15
2023-05-06T10:13:30.037Z,2.65
2023-05-06T10:15:57.115Z,2.25
2023-05-06T10:18:27.978Z,1.80
2023-05-06T10:20:55.695Z,1.40
2023-05-06T10:23:25.451Z,1.40
2023-05-06T10:25:56.276Z,1.27
2023-05-06T10:28:30.718Z,1.52
2023-05-06T10:30:59.489Z,1.60
2023-05-06T10:33:27.969Z,0.93
2023-05-06T10:36:07.895Z,0.80
2023-05-06T10:38:41.008Z,3.42
2023-05-06T10:41:09.572Z,1.27
2023-05-06T10:43:41.539Z,3.00
2023-05-06T10:46:11.414Z,1.58
2023-05-06T10:48:59.023Z,2.08
2023-05-06T10:51:28.210Z,1.00
2023-05-06T10:54:21.637Z,0.80
2023-05-06T10:56:48.274Z,1.15
2023-05-06T10:59:15.739Z,0.70
2023-05-06T11:01:44.752Z,1.33
2023-05-06T11:04:14.304Z,1.95
2023-05-06T11:06:44.465Z,1.42
2023-05-06T11:09:31.054Z,1.80
2023-05-06T11:12:07.149Z,1.20
2023-05-06T11:14:35.954Z,0.93
2023-05-06T11:17:08.227Z,1.42
2023-05-06T11:19:36.609Z,1.35
2023-05-06T11:22:04.629Z,1.25
2023-05-06T11:24:41.284Z,1.50
2023-05-06T11:27:09.365Z,1.80
2023-05-06T11:29:36.334Z,0.90
2023-05-06T11:32:05.300Z,1.20
2023-05-06T11:34:32.870Z,1.38
2023-05-06T11:37:02.595Z,1.20
2023-05-06T11:39:33.256Z,1.90
2023-05-06T11:42:05.733Z,1.48
2023-05-06T11:44:35.039Z,1.60
2023-05-06T11:47:05.699Z,1.33
2023-05-06T11:49:52.030Z,3.42
2023-05-06T11:52:21.443Z,1.90
2023-05-06T11:54:50.704Z,9.40
2023-05-06T11:57:17.429Z,2.97
2023-05-06T11:59:44.095Z,1.73
2023-05-06T12:02:14.171Z,1.23
2023-05-06T12:04:42.363Z,1.30
2023-05-06T12:07:10.985Z,3.60
2023-05-06T12:09:40.476Z,1.70
2023-05-06T12:12:07.808Z,1.10
2023-05-06T12:14:36.587Z,1.08
2023-05-06T12:17:04.159Z,0.80
2023-05-06T12:19:32.601Z,2.35
2023-05-06T12:22:20.779Z,0.90
2023-05-06T12:24:48.590Z,1.10
2023-05-06T12:27:28.548Z,1.65
2023-05-06T12:29:55.372Z,1.92
2023-05-06T12:32:22.200Z,1.13
2023-05-06T12:34:48.980Z,5.20
2023-05-06T12:37:31.752Z,3.35
2023-05-06T12:39:59.453Z,1.10
2023-05-06T12:42:26.777Z,1.10
2023-05-06T12:44:53.539Z,1.05
2023-05-06T12:47:22.897Z,1.13
2023-05-06T12:49:52.702Z,1.52
2023-05-06T12:52:21.548Z,2.15
2023-05-06T12:54:49.349Z,0.90
2023-05-06T12:57:16.650Z,0.75
2023-05-06T12:59:45.595Z,1.60
2023-05-06T13:02:12.964Z,2.00
2023-05-06T13:04:40.749Z,1.10
2023-05-06T13:07:07.525Z,0.95
2023-05-06T13:09:34.415Z,1.20
2023-05-06T13:12:02.371Z,1.50
2023-05-06T13:14:29.043Z,1.42
2023-05-06T13:16:55.925Z,1.08
2023-05-06T13:19:32.156Z,1.88
2023-05-06T13:22:00.529Z,1.58
2023-05-06T13:24:27.605Z,1.73
2023-05-06T13:26:56.026Z,1.17
2023-05-06T13:29:23.525Z,1.80
2023-05-06T13:31:50.969Z,0.95
2023-05-06T13:34:17.730Z,0.88
2023-05-06T13:36:44.486Z,1.10
2023-05-06T13:39:11.155Z,1.38
2023-05-06T13:41:37.908Z,1.83
2023-05-06T13:44:04.979Z,1.52
2023-05-06T13:46:31.736Z,1.05
2023-05-06T13:48:58.430Z,1.60
2023-05-06T13:51:29.854Z,1.10
2023-05-06T13:53:56.715Z,1.60
2023-05-06T13:56:23.560Z,0.90
2023-05-06T13:58:50.415Z,1.02
2023-05-06T14:01:17.176Z,1.10
2023-05-06T14:03:43.877Z,2.03
2023-05-06T14:06:11.495Z,1.13
2023-05-06T14:08:38.215Z,1.10
2023-05-06T14:11:05.166Z,1.00
2023-05-06T14:13:33.505Z,1.37
2023-05-06T14:16:00.710Z,1.50
2023-05-06T14:18:28.133Z,1.15
2023-05-06T14:20:55.272Z,1.05
2023-05-06T14:23:22.011Z,2.28
2023-05-06T14:25:49.448Z,22.98
2023-05-06T14:28:16.191Z,3.03
2023-05-06T14:30:44.424Z,1.05
2023-05-06T14:33:11.549Z,1.20
2023-05-06T14:35:42.436Z,1.13
2023-05-06T14:38:10.270Z,2.28
2023-05-06T14:40:38.678Z,1.45
2023-05-06T14:43:07.238Z,1.15
2023-05-06T14:45:34.006Z,1.13
2023-05-06T14:48:00.837Z,0.85
2023-05-06T14:50:27.512Z,1.15
2023-05-06T14:52:54.256Z,1.37
2023-05-06T14:55:21.084Z,1.55
2023-05-06T14:57:48.041Z,0.97
2023-05-06T15:00:16.173Z,1.50
2023-05-06T15:02:42.920Z,1.73
2023-05-06T15:05:10.752Z,0.80
2023-05-06T15:07:37.856Z,1.10
2023-05-06T15:10:05.121Z,1.02
2023-05-06T15:12:31.902Z,4.40
2023-05-06T15:14:58.658Z,1.10
2023-05-06T15:17:25.541Z,1.65
2023-05-06T15:19:52.333Z,1.17
2023-05-06T15:22:18.987Z,1.20
2023-05-06T15:24:45.675Z,1.83
2023-05-06T15:27:12.363Z,1.23
2023-05-06T15:29:38.860Z,1.00
2023-05-06T15:32:06.079Z,2.05
2023-05-06T15:34:33.031Z,1.52
2023-05-06T15:37:01.816Z,1.95
2023-05-06T15:39:28.608Z,1.37
2023-05-06T15:41:58.105Z,4.50
2023-05-06T15:46:53.319Z,1.30
2023-05-06T15:49:48.851Z,2.57
2023-05-06T15:52:06.691Z,1.08
2023-05-06T15:54:36.218Z,1.20
2023-05-06T15:57:07.141Z,1.40
2023-05-06T15:59:34.154Z,0.90
2023-05-06T16:02:26.452Z,0.80
2023-05-06T16:04:47.820Z,1.25
2023-05-06T16:07:15.494Z,1.23
2023-05-06T16:09:42.923Z,1.03
2023-05-06T16:12:09.986Z,1.02
2023-05-06T16:14:36.714Z,2.38
2023-05-06T16:17:03.449Z,3.20
2023-05-06T16:19:32.133Z,1.45
2023-05-06T16:21:58.835Z,1.20
2023-05-06T16:24:25.566Z,1.52
2023-05-06T16:26:52.312Z,2.42
2023-05-06T16:29:20.646Z,2.13
2023-05-06T16:31:48.553Z,1.75
2023-05-06T16:34:15.403Z,1.00
2023-05-06T16:36:42.147Z,0.93
2023-05-06T16:39:08.867Z,2.33
2023-05-06T16:41:35.566Z,1.33
2023-05-06T16:44:02.233Z,2.13
2023-05-06T16:46:28.986Z,3.40
2023-05-06T16:48:55.886Z,2.20
2023-05-06T16:51:22.761Z,0.90
2023-05-06T16:53:49.487Z,1.55
2023-05-06T16:56:16.198Z,2.27
2023-05-06T16:58:42.992Z,2.10
2023-05-06T17:01:09.892Z,6.28
2023-05-06T17:03:37.784Z,7.03
2023-05-06T17:06:05.078Z,5.65
2023-05-06T17:08:36.139Z,8.18
2023-05-06T17:11:06.652Z,4.63
2023-05-06T17:13:33.914Z,2.40
2023-05-06T17:16:00.804Z,1.40
2023-05-06T17:18:27.580Z,1.75
2023-05-06T17:20:57.046Z,9.00
2023-05-06T17:23:24.368Z,8.00
2023-05-06T17:25:51.585Z,9.83
2023-05-06T17:28:19.007Z,8.98
2023-05-06T17:30:46.511Z,13.20
2023-05-06T17:33:13.240Z,6.57
2023-05-06T17:35:40.054Z,2.13
2023-05-06T17:38:06.795Z,7.07
2023-05-06T17:40:33.623Z,4.57
2023-05-06T17:43:00.595Z,17.55
2023-05-06T17:45:30.243Z,25.95
2023-05-06T17:47:56.945Z,22.77
2023-05-06T17:50:23.922Z,25.67
2023-05-06T17:52:52.638Z,19.33
2023-05-06T17:55:21.502Z,5.85
2023-05-06T17:57:49.182Z,6.72
2023-05-06T18:00:16.884Z,3.10
2023-05-06T18:02:44.587Z,4.00
2023-05-06T18:05:11.915Z,4.80
2023-05-06T18:07:39.141Z,3.20
2023-05-06T18:10:06.680Z,4.50
2023-05-06T18:12:33.435Z,1.45
2023-05-06T18:15:00.591Z,3.85
2023-05-06T18:17:27.407Z,5.37
2023-05-06T18:19:54.158Z,2.35
2023-05-06T18:22:20.837Z,1.65
2023-05-06T18:24:47.560Z,3.30
2023-05-06T18:27:14.201Z,2.47
2023-05-06T18:29:41.346Z,1.48
2023-05-06T18:32:08.388Z,1.60
2023-05-06T18:34:35.459Z,1.65
2023-05-06T18:37:02.258Z,2.20
2023-05-06T18:39:28.914Z,2.22
2023-05-06T18:41:55.664Z,2.10
2023-05-06T18:44:22.341Z,2.72
2023-05-06T18:46:49.036Z,2.70
2023-05-06T18:49:15.714Z,5.05
2023-05-06T18:51:42.398Z,3.60
2023-05-06T18:54:09.185Z,2.00
2023-05-06T18:56:36.935Z,5.50
2023-05-06T18:59:03.767Z,4.03
2023-05-06T19:01:30.627Z,2.40
2023-05-06T19:03:57.487Z,2.40
2023-05-06T19:06:24.172Z,20.00
2023-05-06T19:08:50.866Z,10.00
2023-05-06T19:11:19.330Z,3.75
2023-05-06T19:13:46.421Z,3.53
2023-05-06T19:16:13.831Z,2.60
2023-05-06T19:18:40.671Z,4.15
2023-05-06T19:21:10.825Z,2.97
2023-05-06T19:23:37.689Z,1.88
2023-05-06T19:26:06.766Z,1.88
2023-05-06T19:28:34.366Z,3.38
2023-05-06T19:31:01.532Z,3.78
2023-05-06T19:33:28.542Z,4.80
2023-05-06T19:35:55.232Z,5.45
2023-05-06T19:38:21.973Z,4.90
2023-05-06T19:40:48.683Z,13.32
2023-05-06T19:43:17.643Z,9.90
2023-05-06T19:45:44.282Z,8.80
2023-05-06T19:48:12.767Z,3.05
2023-05-06T19:50:39.480Z,3.80
2023-05-06T19:53:06.116Z,5.35
2023-05-06T19:55:32.824Z,4.53
2023-05-06T19:57:59.835Z,2.10
2023-05-06T20:00:28.105Z,3.10
2023-05-06T20:02:57.235Z,8.27
2023-05-06T20:05:24.847Z,4.55
2023-05-06T20:07:51.599Z,4.72
2023-05-06T20:10:18.338Z,6.90
2023-05-06T20:12:45.357Z,8.93
2023-05-06T20:15:12.476Z,9.45
2023-05-06T20:17:39.485Z,7.07
2023-05-06T20:20:10.816Z,7.55
2023-05-06T20:22:38.871Z,4.13
2023-05-06T20:25:11.434Z,6.50
2023-05-06T20:27:39.098Z,12.90
2023-05-06T20:30:07.973Z,11.18
2023-05-06T20:32:35.462Z,5.15
2023-05-06T20:35:02.252Z,14.77
2023-05-06T20:37:30.514Z,16.17
2023-05-06T20:39:57.906Z,10.90
2023-05-06T20:42:24.930Z,19.50
2023-05-06T20:44:52.092Z,18.30
2023-05-06T20:47:19.514Z,10.75
2023-05-06T20:49:46.386Z,12.18
2023-05-06T20:52:14.602Z,10.52
2023-05-06T20:54:43.969Z,7.13
2023-05-06T20:57:11.708Z,10.70
2023-05-06T20:59:38.468Z,13.43
2023-05-06T21:02:05.526Z,10.40
2023-05-06T21:04:32.470Z,9.80
2023-05-06T21:06:59.729Z,9.57
2023-05-06T21:09:27.895Z,11.35
2023-05-06T21:11:56.040Z,4.57
2023-05-06T21:14:24.783Z,4.37
2023-05-06T21:16:52.152Z,6.72
2023-05-06T21:19:19.420Z,12.80
2023-05-06T21:21:46.254Z,13.73
2023-05-06T21:24:13.142Z,11.18
2023-05-06T21:26:39.891Z,6.20
2023-05-06T21:29:06.588Z,6.57
2023-05-06T21:31:33.491Z,5.27
2023-05-06T21:34:00.318Z,9.07
2023-05-06T21:36:27.202Z,8.43
2023-05-06T21:39:06.856Z,3.42
2023-05-06T21:41:35.629Z,5.25
2023-05-06T21:44:04.290Z,6.63
2023-05-06T21:46:31.901Z,4.95
2023-05-06T21:48:59.462Z,3.70
2023-05-06T21:51:28.279Z,5.17
2023-05-06T21:53:55.246Z,6.10
2023-05-06T21:56:22.194Z,5.63
2023-05-06T21:58:49.092Z,5.75
2023-05-06T22:01:16.113Z,5.50
2023-05-06T22:03:43.722Z,6.30
2023-05-06T22:06:10.686Z,4.30
2023-05-06T22:08:37.324Z,5.00
2023-05-06T22:11:04.230Z,4.30
2023-05-06T22:13:30.916Z,3.63
2023-05-06T22:15:57.814Z,3.45
2023-05-06T22:18:25.640Z,3.70
2023-05-06T22:20:56.663Z,3.85
2023-05-06T22:23:24.390Z,3.30
2023-05-06T22:25:52.610Z,4.77
2023-05-06T22:28:19.781Z,3.97
2023-05-06T22:30:46.610Z,3.95
2023-05-06T22:33:13.388Z,3.08
2023-05-06T22:35:40.307Z,3.40
2023-05-06T22:38:08.055Z,3.92
2023-05-06T22:40:34.736Z,3.08
2023-05-06T22:43:01.424Z,2.73
2023-05-06T22:45:28.159Z,4.90
2023-05-06T22:47:54.914Z,4.28
2023-05-06T22:50:21.631Z,6.13
2023-05-06T22:52:48.282Z,4.05
2023-05-06T22:55:15.967Z,6.03
2023-05-06T22:57:42.693Z,3.30
2023-05-06T23:00:12.300Z,3.58
2023-05-06T23:02:39.082Z,3.28
2023-05-06T23:05:06.511Z,4.40
2023-05-06T23:07:33.321Z,5.72
2023-05-06T23:10:00.085Z,3.75
2023-05-06T23:12:28.049Z,2.70
2023-05-06T23:14:54.583Z,2.90
2023-05-06T23:17:21.354Z,4.25
2023-05-06T23:19:48.073Z,3.08
2023-05-06T23:22:14.728Z,4.80
2023-05-06T23:24:42.178Z,3.78
2023-05-06T23:27:09.014Z,2.95
2023-05-06T23:29:35.728Z,3.45
2023-05-06T23:32:02.949Z,3.13
2023-05-06T23:34:29.605Z,6.22
2023-05-06T23:36:56.571Z,3.30
2023-05-06T23:39:23.344Z,5.75
2023-05-06T23:41:49.995Z,3.75
2023-05-06T23:44:16.780Z,3.47
2023-05-06T23:46:43.923Z,5.93
2023-05-06T23:49:10.613Z,5.03
2023-05-06T23:51:37.308Z,4.53
2023-05-06T23:54:04.133Z,3.95
2023-05-06T23:56:30.776Z,3.05
2023-05-06T23:58:57.425Z,4.03
